メインページ
METAR-TAF:

METAR-TAF

空港 :

ネータージー・スバース・チャンドラ・ボース国際空港

コルカタ, インド

緯度: 22-39N, 経度: 088-27E, 海抜: 4m

現時点の気象観測

当レポートは30分前の19:00(UTC)に作成
北/北西の風 4kt
気温 29°C
湿度 94%
気圧 1004 hPa
視程: 3200m
高度2000ftの雲はほとんどない
煙霧

METAR: VECC 181900Z 34004KT 3200 HZ FEW020 29/28 Q1004 NOSIG

時間: 01:00 (19:30 UTC)

予報

当レポートは5時間30分前の14:00(UTC)に作成
予報は18日の 15時(UTC)から 18日の 24時(UTC)まで有効
北/北西の風 6kt
視程: 3200m
高度2000ftの雲はほとんどない
高度10000ftの雲は散在している
煙霧
18日の 20時(UTC)から 18日の 22時(UTC)まで徐々に
の風 kt
視程: 2500m
煙霧

TAF: VECC 181400Z 1815/1824 34006KT 3200 HZ FEW020 SCT100 BECMG 1820/1822 00000KT 2500 HZ

4,000以上の空港の気象観測と天気予報(METAR報とTAF報)

利用可能な観測所は地図上に黄色い丸と赤い丸で示す。

丸の上にカーソルを重ねると観測所名を参照できる。

次にクリックすると気象観測と天気予報を参照できる。

マップの切り替え:黒色「×」印の緑ボタンをクリックして拡大、「-」印の緑ボタンをクリックして縮小、緑色の三角印をクリックして隣りの地図に切り替え


METAR-TAF: